Terminal Aerodrome Forecast
Issued by NWS

Home | Current Version | Previous Version | Text Only | Print | Product List | Glossary On
Versions: 1 2 3 4 5 6 7 8 9 10 11 12
000
FTUS42 TJSJ 281100
TAFKPK
TAF
TKPK 281130Z 2812/0112 06015KT P6SM VCSH SCT018
     FM281430 07018G26KT P6SM VCSH SCT020 SCT035
     FM282200 07016KT P6SM VCSH FEW020
      AMD NOT SKED 0102/0111=

USA.gov is the U.S. government's official web portal to all federal, state and local government web resources and services.